sim
Sign-in with your pilot id or email,
or register
Callsign
Passwort

Schedule Details

Flight Number: OEC554
Departure: Warsaw Chopin Airport (EPWA) at Time
Arrival: Gothenburg Landvetter Airport (ESGG) at Time
Route: OLIL5D OLILA L621 GRUDA N133 KARTI Y41 LARMA/N0444F340 DCT RISMA RISM2S

Weather Information
Getting current METAR information for EPWA 251400Z 14008KT CAVOK 13/10 Q1014 NOSIG
Getting current METAR information for ESGG 251420Z 22017KT 8000 DZ SCT005 BKN019 11/10 Q0998

Schedule Frequency

Route Map